Aiken, SC (29803)

6:54 AM EST on January 17, 2017 (GMT -0500)
100 Akre Wood | | Change Station

Elev 449 ft 33.53 °N, 81.73 °W | Updated 4 minutes ago

Overcast
Overcast
57.7 °F
Feels Like 57.7 °F
N
0.8
Wind Variable Wind from SSE
Gusts 2.2 mph

Today
High -- | Low -- °F
--% Chance of Precip.
Yesterday
High -- | Low -- °F
Precip. -- in
Pressure 30.27 in
Visibility 3.0 miles
Clouds Scattered Clouds 300 ft
Overcast 1000 ft
Dew Point 57 °F
Humidity 99%
Rainfall 0.00 in
Snow Depth Not available.
7:30 AM 5:44 PM
Waning Gibbous, 73% visible
METAR KAIK 171135Z AUTO 13003KT 3SM BR SCT003 OVC010 12/12 A3027 RMK AO2
Pressure 30.27 in
Visibility 3.0 miles
Clouds Scattered Clouds 300 ft
Overcast 1000 ft
Dew Point 57 °F
Humidity 99%
Rainfall 0.00 in
Snow Depth Not available.
7:30 AM 5:44 PM
Waning Gibbous, 73% visible
METAR KAIK 171135Z AUTO 13003KT 3SM BR SCT003 OVC010 12/12 A3027 RMK AO2

Get Your Daily Forecast Email!

Thanks for signing up!

Be on the lookout for a verification email in your inbox.

You'll start receiving the daily forecast at 8 AM.

×

10-Day Weather Forecast

Almanac

Astronomy

Jan. 17, 2017 Rise Set
Actual Time
Civil Twilight
Nautical Twilight
Astronomical Twilight
Moon
Length of Visible Light
Length of Day
Tomorrow will be .
, % of the Moon is Illuminated

Today's Extremes

State Highs State Lows

Community

WunderPhotos

Upload Photos

1,962,540 photos uploaded!

WunderBlog® & News

Nearby

Air Quality

  Air Quality AQ Index Pollutant
Not available.

Snow Depth

Station Depth Elevation

Earthquake Activity

City Distance Mag. Time & Date
Minimum magnitude displayed is 2.5.

Coastal Water Temperatures

Place Temperature

Stations

Nearby Weather Stations

Station Location Temp. Windchill Dew Point Humidity Wind Precip. Elev Updated Type
                   

Watches & Warnings

Dense Fog Advisory
Issued: 3:21 AM EST Jan. 17, 2017 – National Weather Service

... Dense fog advisory in effect until 10 am EST this morning...

The National Weather Service in Columbia has issued a dense fog
advisory, which is in effect until 10 am EST this morning.

* Visibility... one quarter of a mile or less at times.

* Impacts... limited visibilities will make travel hazardous.

Precautionary/preparedness actions...

A dense fog advisory means visibilities will frequently be
reduced to less than one quarter mile. If driving... slow down...
use your headlights... and leave plenty of distance ahead of you.





Marine Fog Advisory
Issued: 3:22 AM EST Jan. 17, 2017 – National Weather Service

... Dense fog advisory now in effect until 10 am EST this
morning...

* visibility... one quarter mile or less at times.

Precautionary/preparedness actions...

If you must navigate... proceed with caution. Use proper fog
signals. Make sure all running lights are on. Remember to use
your radar and Compass.